sensor_id;sensor_type;location;lat;lon;timestamp;temperature;humidity
1614;DHT22;800;48.824;9.346;2022-10-14T00:01:21;19.70;67.70
1614;DHT22;800;48.824;9.346;2022-10-14T00:03:47;19.70;67.80
1614;DHT22;800;48.824;9.346;2022-10-14T00:06:17;19.70;67.90
1614;DHT22;800;48.824;9.346;2022-10-14T00:08:43;19.80;67.50
1614;DHT22;800;48.824;9.346;2022-10-14T00:11:12;19.90;67.30
1614;DHT22;800;48.824;9.346;2022-10-14T00:13:38;19.90;67.40
1614;DHT22;800;48.824;9.346;2022-10-14T00:16:04;20.00;67.30
1614;DHT22;800;48.824;9.346;2022-10-14T00:18:30;20.00;66.80
1614;DHT22;800;48.824;9.346;2022-10-14T00:20:58;20.10;66.70
1614;DHT22;800;48.824;9.346;2022-10-14T00:23:25;20.10;66.50
1614;DHT22;800;48.824;9.346;2022-10-14T00:25:51;20.10;66.00
1614;DHT22;800;48.824;9.346;2022-10-14T00:28:17;20.10;66.10
1614;DHT22;800;48.824;9.346;2022-10-14T00:30:55;20.10;66.20
1614;DHT22;800;48.824;9.346;2022-10-14T00:33:21;20.00;66.00
1614;DHT22;800;48.824;9.346;2022-10-14T00:36:00;19.90;66.20
1614;DHT22;800;48.824;9.346;2022-10-14T00:38:26;19.90;66.40
1614;DHT22;800;48.824;9.346;2022-10-14T00:40:52;19.90;66.70
1614;DHT22;800;48.824;9.346;2022-10-14T00:43:19;19.90;66.50
1614;DHT22;800;48.824;9.346;2022-10-14T00:45:45;19.80;66.60
1614;DHT22;800;48.824;9.346;2022-10-14T00:48:11;19.70;67.10
1614;DHT22;800;48.824;9.346;2022-10-14T00:50:39;19.70;67.30
1614;DHT22;800;48.824;9.346;2022-10-14T00:53:06;19.60;67.50
1614;DHT22;800;48.824;9.346;2022-10-14T00:55:32;19.70;67.70
1614;DHT22;800;48.824;9.346;2022-10-14T00:57:58;19.70;67.40
1614;DHT22;800;48.824;9.346;2022-10-14T01:00:24;19.70;67.30
1614;DHT22;800;48.824;9.346;2022-10-14T01:02:50;19.50;67.80
1614;DHT22;800;48.824;9.346;2022-10-14T01:05:17;19.50;68.10
1614;DHT22;800;48.824;9.346;2022-10-14T01:10:38;19.50;68.20
1614;DHT22;800;48.824;9.346;2022-10-14T01:13:26;19.50;68.00
1614;DHT22;800;48.824;9.346;2022-10-14T01:16:06;19.30;68.20
1614;DHT22;800;48.824;9.346;2022-10-14T01:37:55;19.60;67.40
1614;DHT22;800;48.824;9.346;2022-10-14T01:40:50;19.50;67.50
1614;DHT22;800;48.824;9.346;2022-10-14T01:43:16;19.60;67.80
1614;DHT22;800;48.824;9.346;2022-10-14T01:45:43;19.60;67.90
1614;DHT22;800;48.824;9.346;2022-10-14T01:48:11;19.60;67.70
1614;DHT22;800;48.824;9.346;2022-10-14T01:50:37;19.70;67.80
1614;DHT22;800;48.824;9.346;2022-10-14T01:53:08;19.70;67.70
1614;DHT22;800;48.824;9.346;2022-10-14T01:55:42;19.70;67.60
1614;DHT22;800;48.824;9.346;2022-10-14T01:58:10;19.80;67.30
1614;DHT22;800;48.824;9.346;2022-10-14T02:00:37;19.80;67.00
1614;DHT22;800;48.824;9.346;2022-10-14T02:03:03;19.80;66.80
1614;DHT22;800;48.824;9.346;2022-10-14T02:06:02;19.80;66.60
1614;DHT22;800;48.824;9.346;2022-10-14T02:11:20;19.70;66.20
1614;DHT22;800;48.824;9.346;2022-10-14T02:19:25;19.30;68.60
1614;DHT22;800;48.824;9.346;2022-10-14T02:24:43;19.20;68.70
1614;DHT22;800;48.824;9.346;2022-10-14T02:27:14;19.20;68.90
1614;DHT22;800;48.824;9.346;2022-10-14T02:29:43;19.20;69.00
1614;DHT22;800;48.824;9.346;2022-10-14T02:32:13;19.20;69.20
1614;DHT22;800;48.824;9.346;2022-10-14T02:34:39;19.00;69.20
1614;DHT22;800;48.824;9.346;2022-10-14T02:37:06;18.90;70.40
1614;DHT22;800;48.824;9.346;2022-10-14T02:39:36;18.90;70.40
1614;DHT22;800;48.824;9.346;2022-10-14T02:42:03;18.90;70.60
1614;DHT22;800;48.824;9.346;2022-10-14T02:44:29;18.90;70.30
1614;DHT22;800;48.824;9.346;2022-10-14T02:46:55;18.90;70.40
1614;DHT22;800;48.824;9.346;2022-10-14T02:49:21;18.90;70.50
1614;DHT22;800;48.824;9.346;2022-10-14T02:51:47;18.80;70.70
1614;DHT22;800;48.824;9.346;2022-10-14T02:54:13;18.70;71.00
1614;DHT22;800;48.824;9.346;2022-10-14T02:56:39;18.70;71.40
1614;DHT22;800;48.824;9.346;2022-10-14T02:59:04;18.80;71.50
1614;DHT22;800;48.824;9.346;2022-10-14T03:01:30;18.80;71.30
1614;DHT22;800;48.824;9.346;2022-10-14T03:03:55;18.70;71.00
1614;DHT22;800;48.824;9.346;2022-10-14T03:06:21;18.70;71.40
1614;DHT22;800;48.824;9.346;2022-10-14T03:08:46;18.80;71.50
1614;DHT22;800;48.824;9.346;2022-10-14T03:11:12;18.80;71.30
1614;DHT22;800;48.824;9.346;2022-10-14T03:13:38;18.90;71.10
1614;DHT22;800;48.824;9.346;2022-10-14T03:16:03;18.90;70.90
1614;DHT22;800;48.824;9.346;2022-10-14T03:18:29;19.00;70.80
1614;DHT22;800;48.824;9.346;2022-10-14T03:20:55;18.90;70.60
1614;DHT22;800;48.824;9.346;2022-10-14T03:23:21;18.90;70.90
1614;DHT22;800;48.824;9.346;2022-10-14T03:25:47;18.90;71.50
1614;DHT22;800;48.824;9.346;2022-10-14T03:28:13;18.90;70.70
1614;DHT22;800;48.824;9.346;2022-10-14T03:30:39;18.90;70.60
1614;DHT22;800;48.824;9.346;2022-10-14T03:33:05;18.90;70.60
1614;DHT22;800;48.824;9.346;2022-10-14T03:35:30;18.90;70.60
1614;DHT22;800;48.824;9.346;2022-10-14T03:37:56;18.90;70.50
1614;DHT22;800;48.824;9.346;2022-10-14T03:40:23;18.90;70.50
1614;DHT22;800;48.824;9.346;2022-10-14T03:42:49;18.90;70.40
1614;DHT22;800;48.824;9.346;2022-10-14T03:45:15;18.80;70.30
1614;DHT22;800;48.824;9.346;2022-10-14T03:47:46;18.80;70.60
1614;DHT22;800;48.824;9.346;2022-10-14T03:50:12;18.80;71.10
1614;DHT22;800;48.824;9.346;2022-10-14T03:52:37;18.80;71.00
1614;DHT22;800;48.824;9.346;2022-10-14T03:55:04;18.60;71.40
1614;DHT22;800;48.824;9.346;2022-10-14T03:57:30;18.40;72.30
1614;DHT22;800;48.824;9.346;2022-10-14T03:59:56;18.20;73.60
1614;DHT22;800;48.824;9.346;2022-10-14T04:02:21;18.10;74.40
1614;DHT22;800;48.824;9.346;2022-10-14T04:04:47;18.20;74.30
1614;DHT22;800;48.824;9.346;2022-10-14T04:07:12;18.20;74.00
1614;DHT22;800;48.824;9.346;2022-10-14T04:09:38;17.90;75.30
1614;DHT22;800;48.824;9.346;2022-10-14T04:12:04;17.70;76.60
1614;DHT22;800;48.824;9.346;2022-10-14T04:14:29;17.70;77.00
1614;DHT22;800;48.824;9.346;2022-10-14T04:16:55;17.60;77.40
1614;DHT22;800;48.824;9.346;2022-10-14T04:19:21;17.70;77.00
1614;DHT22;800;48.824;9.346;2022-10-14T04:21:46;17.90;76.20
1614;DHT22;800;48.824;9.346;2022-10-14T04:24:12;17.80;75.50
1614;DHT22;800;48.824;9.346;2022-10-14T04:26:37;17.70;76.10
1614;DHT22;800;48.824;9.346;2022-10-14T04:29:03;17.70;76.10
1614;DHT22;800;48.824;9.346;2022-10-14T04:31:29;17.80;75.70
1614;DHT22;800;48.824;9.346;2022-10-14T04:33:54;17.80;76.00
1614;DHT22;800;48.824;9.346;2022-10-14T04:36:20;17.80;76.10
1614;DHT22;800;48.824;9.346;2022-10-14T04:38:46;17.80;75.80
1614;DHT22;800;48.824;9.346;2022-10-14T04:41:11;17.70;76.00
1614;DHT22;800;48.824;9.346;2022-10-14T04:43:37;17.60;76.40
1614;DHT22;800;48.824;9.346;2022-10-14T04:46:02;17.50;76.40
1614;DHT22;800;48.824;9.346;2022-10-14T04:48:28;17.50;76.50
1614;DHT22;800;48.824;9.346;2022-10-14T04:50:54;17.60;76.40
1614;DHT22;800;48.824;9.346;2022-10-14T04:53:20;17.60;76.20
1614;DHT22;800;48.824;9.346;2022-10-14T04:55:46;17.60;76.40
1614;DHT22;800;48.824;9.346;2022-10-14T04:58:14;17.50;76.70
1614;DHT22;800;48.824;9.346;2022-10-14T05:00:40;17.40;77.80
1614;DHT22;800;48.824;9.346;2022-10-14T05:03:06;17.30;78.10
1614;DHT22;800;48.824;9.346;2022-10-14T05:05:32;17.30;78.20
1614;DHT22;800;48.824;9.346;2022-10-14T05:07:58;17.40;78.00
1614;DHT22;800;48.824;9.346;2022-10-14T05:10:23;17.30;78.10
1614;DHT22;800;48.824;9.346;2022-10-14T05:12:49;17.30;78.60
1614;DHT22;800;48.824;9.346;2022-10-14T05:15:15;17.30;78.50
1614;DHT22;800;48.824;9.346;2022-10-14T05:17:41;17.30;78.80
1614;DHT22;800;48.824;9.346;2022-10-14T05:20:10;17.30;78.90
1614;DHT22;800;48.824;9.346;2022-10-14T05:22:39;17.50;78.30
1614;DHT22;800;48.824;9.346;2022-10-14T05:25:05;17.50;78.80
1614;DHT22;800;48.824;9.346;2022-10-14T05:27:30;17.50;78.80
1614;DHT22;800;48.824;9.346;2022-10-14T05:29:56;17.50;78.70
1614;DHT22;800;48.824;9.346;2022-10-14T05:32:21;17.60;78.20
1614;DHT22;800;48.824;9.346;2022-10-14T05:34:47;17.70;76.90
1614;DHT22;800;48.824;9.346;2022-10-14T05:37:13;17.70;76.90
1614;DHT22;800;48.824;9.346;2022-10-14T05:39:38;17.70;76.10
1614;DHT22;800;48.824;9.346;2022-10-14T05:42:04;17.60;76.70
1614;DHT22;800;48.824;9.346;2022-10-14T05:44:29;17.70;76.50
1614;DHT22;800;48.824;9.346;2022-10-14T05:46:55;17.70;77.10
1614;DHT22;800;48.824;9.346;2022-10-14T05:49:21;17.80;76.10
1614;DHT22;800;48.824;9.346;2022-10-14T05:51:46;17.80;75.80
1614;DHT22;800;48.824;9.346;2022-10-14T05:54:12;18.00;75.50
1614;DHT22;800;48.824;9.346;2022-10-14T05:56:38;18.00;75.10
1614;DHT22;800;48.824;9.346;2022-10-14T05:59:03;17.90;75.30
1614;DHT22;800;48.824;9.346;2022-10-14T06:01:29;17.90;75.30
1614;DHT22;800;48.824;9.346;2022-10-14T06:03:58;18.00;74.90
1614;DHT22;800;48.824;9.346;2022-10-14T06:06:24;17.90;75.10
1614;DHT22;800;48.824;9.346;2022-10-14T06:08:50;17.90;75.50
1614;DHT22;800;48.824;9.346;2022-10-14T06:11:15;17.90;75.30
1614;DHT22;800;48.824;9.346;2022-10-14T06:13:41;18.00;75.10
1614;DHT22;800;48.824;9.346;2022-10-14T06:16:08;18.00;74.90
1614;DHT22;800;48.824;9.346;2022-10-14T06:18:34;18.00;74.30
1614;DHT22;800;48.824;9.346;2022-10-14T06:21:00;18.00;74.70
1614;DHT22;800;48.824;9.346;2022-10-14T06:23:26;18.00;75.50
1614;DHT22;800;48.824;9.346;2022-10-14T06:25:52;18.20;74.00
1614;DHT22;800;48.824;9.346;2022-10-14T06:28:18;18.30;73.90
1614;DHT22;800;48.824;9.346;2022-10-14T06:30:54;18.30;73.40
1614;DHT22;800;48.824;9.346;2022-10-14T06:33:20;18.40;73.50
1614;DHT22;800;48.824;9.346;2022-10-14T06:35:46;18.40;73.30
1614;DHT22;800;48.824;9.346;2022-10-14T06:38:12;18.40;72.90
1614;DHT22;800;48.824;9.346;2022-10-14T06:40:38;18.50;72.40
1614;DHT22;800;48.824;9.346;2022-10-14T06:43:04;18.60;72.40
1614;DHT22;800;48.824;9.346;2022-10-14T06:45:30;18.70;71.90
1614;DHT22;800;48.824;9.346;2022-10-14T06:47:56;18.80;71.60
1614;DHT22;800;48.824;9.346;2022-10-14T06:50:22;18.80;71.30
1614;DHT22;800;48.824;9.346;2022-10-14T06:52:47;18.80;71.30
1614;DHT22;800;48.824;9.346;2022-10-14T06:55:14;18.80;71.30
1614;DHT22;800;48.824;9.346;2022-10-14T06:57:39;18.90;71.00
1614;DHT22;800;48.824;9.346;2022-10-14T07:00:06;18.90;71.00
1614;DHT22;800;48.824;9.346;2022-10-14T07:02:32;18.90;71.20
1614;DHT22;800;48.824;9.346;2022-10-14T07:04:58;19.00;70.60
1614;DHT22;800;48.824;9.346;2022-10-14T07:07:23;19.00;70.60
1614;DHT22;800;48.824;9.346;2022-10-14T07:09:49;19.00;70.40
1614;DHT22;800;48.824;9.346;2022-10-14T07:12:15;19.00;70.70
1614;DHT22;800;48.824;9.346;2022-10-14T07:14:41;18.90;71.20
1614;DHT22;800;48.824;9.346;2022-10-14T07:17:07;18.90;71.70
1614;DHT22;800;48.824;9.346;2022-10-14T07:19:33;18.90;72.00
1614;DHT22;800;48.824;9.346;2022-10-14T07:21:59;18.70;72.50
1614;DHT22;800;48.824;9.346;2022-10-14T07:24:24;18.60;73.30
1614;DHT22;800;48.824;9.346;2022-10-14T07:26:57;18.70;73.40
1614;DHT22;800;48.824;9.346;2022-10-14T07:29:23;18.70;73.60
1614;DHT22;800;48.824;9.346;2022-10-14T07:31:49;18.70;73.00
1614;DHT22;800;48.824;9.346;2022-10-14T07:34:14;18.90;72.50
1614;DHT22;800;48.824;9.346;2022-10-14T07:36:40;18.80;71.70
1614;DHT22;800;48.824;9.346;2022-10-14T07:39:06;18.60;73.20
1614;DHT22;800;48.824;9.346;2022-10-14T07:41:31;18.50;73.30
1614;DHT22;800;48.824;9.346;2022-10-14T07:43:59;18.50;73.50
1614;DHT22;800;48.824;9.346;2022-10-14T07:46:32;18.60;73.50
1614;DHT22;800;48.824;9.346;2022-10-14T07:49:04;18.70;73.40
1614;DHT22;800;48.824;9.346;2022-10-14T07:51:31;18.70;73.20
1614;DHT22;800;48.824;9.346;2022-10-14T07:53:58;18.80;73.00
1614;DHT22;800;48.824;9.346;2022-10-14T07:56:24;18.80;73.10
1614;DHT22;800;48.824;9.346;2022-10-14T07:58:51;18.80;73.30
1614;DHT22;800;48.824;9.346;2022-10-14T08:01:17;18.80;73.20
1614;DHT22;800;48.824;9.346;2022-10-14T08:03:43;19.00;73.10
1614;DHT22;800;48.824;9.346;2022-10-14T08:06:11;18.90;73.10
1614;DHT22;800;48.824;9.346;2022-10-14T08:08:38;19.00;73.20
1614;DHT22;800;48.824;9.346;2022-10-14T08:11:05;19.10;74.00
1614;DHT22;800;48.824;9.346;2022-10-14T08:13:31;19.20;73.50
1614;DHT22;800;48.824;9.346;2022-10-14T08:15:57;19.20;73.60
1614;DHT22;800;48.824;9.346;2022-10-14T08:18:23;19.10;73.60
1614;DHT22;800;48.824;9.346;2022-10-14T08:20:50;19.10;73.50
1614;DHT22;800;48.824;9.346;2022-10-14T08:23:15;19.10;73.20
1614;DHT22;800;48.824;9.346;2022-10-14T08:25:42;19.10;73.40
1614;DHT22;800;48.824;9.346;2022-10-14T08:28:08;19.10;73.10
1614;DHT22;800;48.824;9.346;2022-10-14T08:30:34;19.10;73.30
1614;DHT22;800;48.824;9.346;2022-10-14T08:33:00;19.00;73.80
1614;DHT22;800;48.824;9.346;2022-10-14T08:35:25;19.10;73.30
1614;DHT22;800;48.824;9.346;2022-10-14T08:37:56;19.10;73.00
1614;DHT22;800;48.824;9.346;2022-10-14T08:40:22;19.10;74.00
1614;DHT22;800;48.824;9.346;2022-10-14T08:43:03;19.00;74.10
1614;DHT22;800;48.824;9.346;2022-10-14T08:45:43;19.00;73.90
1614;DHT22;800;48.824;9.346;2022-10-14T08:48:15;18.80;74.90
1614;DHT22;800;48.824;9.346;2022-10-14T08:50:48;19.00;74.70
1614;DHT22;800;48.824;9.346;2022-10-14T08:53:27;19.20;73.80
1614;DHT22;800;48.824;9.346;2022-10-14T08:55:59;19.30;73.40
1614;DHT22;800;48.824;9.346;2022-10-14T08:58:46;19.20;73.20
1614;DHT22;800;48.824;9.346;2022-10-14T09:03:44;18.70;75.70
1614;DHT22;800;48.824;9.346;2022-10-14T09:06:14;18.70;76.50
1614;DHT22;800;48.824;9.346;2022-10-14T09:08:45;18.60;75.80
1614;DHT22;800;48.824;9.346;2022-10-14T09:11:14;18.50;76.90
1614;DHT22;800;48.824;9.346;2022-10-14T09:13:44;18.70;77.00
1614;DHT22;800;48.824;9.346;2022-10-14T09:16:23;18.90;75.50
1614;DHT22;800;48.824;9.346;2022-10-14T09:19:02;18.90;74.60
1614;DHT22;800;48.824;9.346;2022-10-14T09:21:32;18.80;75.80
1614;DHT22;800;48.824;9.346;2022-10-14T09:26:36;19.30;74.50
1614;DHT22;800;48.824;9.346;2022-10-14T09:29:03;19.20;74.40
1614;DHT22;800;48.824;9.346;2022-10-14T09:31:30;19.30;73.40
1614;DHT22;800;48.824;9.346;2022-10-14T09:33:55;19.30;72.40
1614;DHT22;800;48.824;9.346;2022-10-14T09:36:21;19.30;73.10
1614;DHT22;800;48.824;9.346;2022-10-14T09:38:51;19.40;72.20
1614;DHT22;800;48.824;9.346;2022-10-14T09:41:18;19.60;71.10
1614;DHT22;800;48.824;9.346;2022-10-14T09:44:12;19.60;71.50
1614;DHT22;800;48.824;9.346;2022-10-14T09:46:37;19.60;71.50
1614;DHT22;800;48.824;9.346;2022-10-14T09:49:03;19.80;71.40
1614;DHT22;800;48.824;9.346;2022-10-14T09:51:31;19.80;70.50
1614;DHT22;800;48.824;9.346;2022-10-14T09:54:00;19.90;71.10
1614;DHT22;800;48.824;9.346;2022-10-14T09:56:34;20.20;70.70
1614;DHT22;800;48.824;9.346;2022-10-14T09:59:14;20.20;70.40
1614;DHT22;800;48.824;9.346;2022-10-14T10:01:49;19.90;70.70
1614;DHT22;800;48.824;9.346;2022-10-14T10:06:56;19.70;70.30
1614;DHT22;800;48.824;9.346;2022-10-14T10:09:22;19.70;71.60
1614;DHT22;800;48.824;9.346;2022-10-14T10:11:48;19.80;72.40
1614;DHT22;800;48.824;9.346;2022-10-14T10:14:23;20.00;71.80
1614;DHT22;800;48.824;9.346;2022-10-14T10:16:51;20.20;70.40
1614;DHT22;800;48.824;9.346;2022-10-14T10:19:27;20.40;70.00
1614;DHT22;800;48.824;9.346;2022-10-14T10:21:53;20.60;69.40
1614;DHT22;800;48.824;9.346;2022-10-14T10:24:22;20.60;68.40
1614;DHT22;800;48.824;9.346;2022-10-14T10:26:48;20.60;67.90
1614;DHT22;800;48.824;9.346;2022-10-14T10:29:25;20.70;68.20
1614;DHT22;800;48.824;9.346;2022-10-14T10:32:04;20.80;68.40
1614;DHT22;800;48.824;9.346;2022-10-14T10:37:30;21.00;67.00
1614;DHT22;800;48.824;9.346;2022-10-14T10:45:23;20.80;67.20
1614;DHT22;800;48.824;9.346;2022-10-14T10:48:18;20.80;67.10
1614;DHT22;800;48.824;9.346;2022-10-14T10:58:56;21.60;65.30
1614;DHT22;800;48.824;9.346;2022-10-14T11:01:47;21.60;65.30
1614;DHT22;800;48.824;9.346;2022-10-14T11:07:00;22.00;64.70
1614;DHT22;800;48.824;9.346;2022-10-14T11:13:14;22.30;63.20
1614;DHT22;800;48.824;9.346;2022-10-14T11:18:49;22.30;61.20
1614;DHT22;800;48.824;9.346;2022-10-14T11:21:29;22.50;61.60
1614;DHT22;800;48.824;9.346;2022-10-14T11:32:46;22.40;62.10
1614;DHT22;800;48.824;9.346;2022-10-14T11:46:01;22.70;61.20
1614;DHT22;800;48.824;9.346;2022-10-14T11:48:44;22.70;61.30
1614;DHT22;800;48.824;9.346;2022-10-14T11:51:40;22.70;61.50
1614;DHT22;800;48.824;9.346;2022-10-14T11:54:12;22.70;61.30
1614;DHT22;800;48.824;9.346;2022-10-14T12:05:19;22.80;62.40
1614;DHT22;800;48.824;9.346;2022-10-14T12:10:56;22.80;62.90
1614;DHT22;800;48.824;9.346;2022-10-14T12:13:44;22.80;63.10
1614;DHT22;800;48.824;9.346;2022-10-14T12:16:14;22.80;62.90
1614;DHT22;800;48.824;9.346;2022-10-14T12:18:41;22.80;63.30
1614;DHT22;800;48.824;9.346;2022-10-14T12:21:39;22.70;63.20
1614;DHT22;800;48.824;9.346;2022-10-14T12:24:13;22.60;64.30
1614;DHT22;800;48.824;9.346;2022-10-14T12:32:25;22.80;63.60
1614;DHT22;800;48.824;9.346;2022-10-14T12:34:58;22.80;63.30
1614;DHT22;800;48.824;9.346;2022-10-14T12:45:18;22.50;63.10
1614;DHT22;800;48.824;9.346;2022-10-14T12:47:44;22.70;62.00
1614;DHT22;800;48.824;9.346;2022-10-14T12:52:39;22.80;61.80
1614;DHT22;800;48.824;9.346;2022-10-14T12:55:15;22.80;60.90
1614;DHT22;800;48.824;9.346;2022-10-14T12:57:42;22.70;60.50
1614;DHT22;800;48.824;9.346;2022-10-14T13:00:33;22.70;61.20
1614;DHT22;800;48.824;9.346;2022-10-14T13:03:01;22.70;61.80
1614;DHT22;800;48.824;9.346;2022-10-14T13:05:35;22.80;60.80
1614;DHT22;800;48.824;9.346;2022-10-14T13:18:52;22.40;61.60
1614;DHT22;800;48.824;9.346;2022-10-14T13:37:29;22.70;59.60
1614;DHT22;800;48.824;9.346;2022-10-14T13:39:55;22.70;59.70
1614;DHT22;800;48.824;9.346;2022-10-14T13:42:25;22.70;59.70
1614;DHT22;800;48.824;9.346;2022-10-14T13:44:56;22.80;59.60
1614;DHT22;800;48.824;9.346;2022-10-14T13:47:22;22.80;59.50
1614;DHT22;800;48.824;9.346;2022-10-14T13:49:48;22.80;59.60
1614;DHT22;800;48.824;9.346;2022-10-14T13:52:23;22.80;59.30
1614;DHT22;800;48.824;9.346;2022-10-14T13:55:17;22.70;59.10
1614;DHT22;800;48.824;9.346;2022-10-14T14:00:43;22.70;59.30
1614;DHT22;800;48.824;9.346;2022-10-14T14:03:28;22.80;59.40
1614;DHT22;800;48.824;9.346;2022-10-14T14:05:55;22.70;59.30
1614;DHT22;800;48.824;9.346;2022-10-14T14:08:25;22.60;59.40
1614;DHT22;800;48.824;9.346;2022-10-14T14:10:56;22.60;59.40
1614;DHT22;800;48.824;9.346;2022-10-14T14:13:26;22.70;59.20
1614;DHT22;800;48.824;9.346;2022-10-14T14:15:53;22.70;59.20
1614;DHT22;800;48.824;9.346;2022-10-14T14:18:32;22.80;59.50
1614;DHT22;800;48.824;9.346;2022-10-14T14:20:59;22.70;59.40
1614;DHT22;800;48.824;9.346;2022-10-14T14:23:26;22.70;59.50
1614;DHT22;800;48.824;9.346;2022-10-14T14:25:52;22.70;59.70
1614;DHT22;800;48.824;9.346;2022-10-14T14:28:18;22.50;59.70
1614;DHT22;800;48.824;9.346;2022-10-14T14:30:50;22.50;60.00
1614;DHT22;800;48.824;9.346;2022-10-14T14:33:18;22.50;59.80
1614;DHT22;800;48.824;9.346;2022-10-14T14:35:53;22.50;60.60
1614;DHT22;800;48.824;9.346;2022-10-14T14:38:31;22.20;61.50
1614;DHT22;800;48.824;9.346;2022-10-14T14:41:05;21.90;64.00
1614;DHT22;800;48.824;9.346;2022-10-14T14:43:32;22.00;65.20
1614;DHT22;800;48.824;9.346;2022-10-14T14:46:00;21.80;66.10
1614;DHT22;800;48.824;9.346;2022-10-14T14:48:27;21.80;66.90
1614;DHT22;800;48.824;9.346;2022-10-14T14:50:54;21.80;67.70
1614;DHT22;800;48.824;9.346;2022-10-14T14:53:22;21.60;67.60
1614;DHT22;800;48.824;9.346;2022-10-14T15:00:58;21.70;68.30
1614;DHT22;800;48.824;9.346;2022-10-14T15:03:26;21.80;68.40
1614;DHT22;800;48.824;9.346;2022-10-14T15:06:01;21.90;68.10
1614;DHT22;800;48.824;9.346;2022-10-14T15:08:33;21.90;67.80
1614;DHT22;800;48.824;9.346;2022-10-14T15:11:00;22.00;68.00
1614;DHT22;800;48.824;9.346;2022-10-14T15:15:54;22.10;67.70
1614;DHT22;800;48.824;9.346;2022-10-14T15:18:20;22.10;67.50
1614;DHT22;800;48.824;9.346;2022-10-14T15:20:48;22.10;67.30
1614;DHT22;800;48.824;9.346;2022-10-14T15:23:38;22.10;67.60
1614;DHT22;800;48.824;9.346;2022-10-14T15:29:11;21.90;68.50
1614;DHT22;800;48.824;9.346;2022-10-14T15:31:42;22.00;68.70
1614;DHT22;800;48.824;9.346;2022-10-14T15:34:16;22.00;68.50
1614;DHT22;800;48.824;9.346;2022-10-14T15:36:42;22.10;68.60
1614;DHT22;800;48.824;9.346;2022-10-14T15:39:11;22.10;68.70
1614;DHT22;800;48.824;9.346;2022-10-14T15:41:38;22.10;68.20
1614;DHT22;800;48.824;9.346;2022-10-14T15:44:04;22.10;68.10
1614;DHT22;800;48.824;9.346;2022-10-14T15:46:29;22.10;68.10
1614;DHT22;800;48.824;9.346;2022-10-14T15:49:18;22.10;68.30
1614;DHT22;800;48.824;9.346;2022-10-14T15:51:45;21.90;68.20
1614;DHT22;800;48.824;9.346;2022-10-14T15:54:10;21.80;68.20
1614;DHT22;800;48.824;9.346;2022-10-14T15:56:37;21.60;67.60
1614;DHT22;800;48.824;9.346;2022-10-14T15:59:04;21.50;67.90
1614;DHT22;800;48.824;9.346;2022-10-14T16:01:32;21.40;67.90
1614;DHT22;800;48.824;9.346;2022-10-14T16:04:00;21.60;67.60
1614;DHT22;800;48.824;9.346;2022-10-14T16:06:27;21.60;67.30
1614;DHT22;800;48.824;9.346;2022-10-14T16:08:57;21.70;67.40
1614;DHT22;800;48.824;9.346;2022-10-14T16:11:26;21.70;67.40
1614;DHT22;800;48.824;9.346;2022-10-14T16:13:52;21.80;67.50
1614;DHT22;800;48.824;9.346;2022-10-14T16:16:23;21.80;67.50
1614;DHT22;800;48.824;9.346;2022-10-14T16:18:49;21.80;67.50
1614;DHT22;800;48.824;9.346;2022-10-14T16:21:16;21.70;67.50
1614;DHT22;800;48.824;9.346;2022-10-14T16:23:42;21.70;67.40
1614;DHT22;800;48.824;9.346;2022-10-14T16:26:08;21.70;67.70
1614;DHT22;800;48.824;9.346;2022-10-14T16:28:34;21.60;68.00
1614;DHT22;800;48.824;9.346;2022-10-14T16:31:00;21.60;68.00
1614;DHT22;800;48.824;9.346;2022-10-14T16:33:25;21.50;67.90
1614;DHT22;800;48.824;9.346;2022-10-14T16:35:55;21.40;67.90
1614;DHT22;800;48.824;9.346;2022-10-14T16:38:22;21.40;68.00
1614;DHT22;800;48.824;9.346;2022-10-14T16:40:59;21.40;68.00
1614;DHT22;800;48.824;9.346;2022-10-14T16:43:26;21.40;68.20
1614;DHT22;800;48.824;9.346;2022-10-14T16:45:52;21.30;68.80
1614;DHT22;800;48.824;9.346;2022-10-14T16:48:18;21.30;68.70
1614;DHT22;800;48.824;9.346;2022-10-14T16:50:50;21.30;68.90
1614;DHT22;800;48.824;9.346;2022-10-14T16:53:17;21.40;68.70
1614;DHT22;800;48.824;9.346;2022-10-14T16:56:02;21.40;68.70
1614;DHT22;800;48.824;9.346;2022-10-14T16:58:27;21.30;69.00
1614;DHT22;800;48.824;9.346;2022-10-14T17:00:54;21.40;69.20
1614;DHT22;800;48.824;9.346;2022-10-14T17:03:19;21.30;69.00
1614;DHT22;800;48.824;9.346;2022-10-14T17:05:45;21.30;69.00
1614;DHT22;800;48.824;9.346;2022-10-14T17:08:11;21.30;69.00
1614;DHT22;800;48.824;9.346;2022-10-14T17:10:38;21.30;68.70
1614;DHT22;800;48.824;9.346;2022-10-14T17:13:04;21.30;68.90
1614;DHT22;800;48.824;9.346;2022-10-14T17:15:30;21.30;69.20
1614;DHT22;800;48.824;9.346;2022-10-14T17:17:55;21.20;69.20
1614;DHT22;800;48.824;9.346;2022-10-14T17:20:21;21.20;69.20
1614;DHT22;800;48.824;9.346;2022-10-14T17:22:47;21.20;69.50
1614;DHT22;800;48.824;9.346;2022-10-14T17:25:14;21.20;69.60
1614;DHT22;800;48.824;9.346;2022-10-14T17:27:40;21.20;69.50
1614;DHT22;800;48.824;9.346;2022-10-14T17:30:07;21.30;69.40
1614;DHT22;800;48.824;9.346;2022-10-14T17:32:33;21.20;69.30
1614;DHT22;800;48.824;9.346;2022-10-14T17:34:58;21.20;69.20
1614;DHT22;800;48.824;9.346;2022-10-14T17:37:24;21.20;69.10
1614;DHT22;800;48.824;9.346;2022-10-14T17:39:50;21.20;69.30
1614;DHT22;800;48.824;9.346;2022-10-14T17:42:15;21.20;69.40
1614;DHT22;800;48.824;9.346;2022-10-14T17:44:41;21.20;69.70
1614;DHT22;800;48.824;9.346;2022-10-14T17:47:06;21.20;69.80
1614;DHT22;800;48.824;9.346;2022-10-14T17:49:32;21.20;69.70
1614;DHT22;800;48.824;9.346;2022-10-14T17:51:58;21.10;69.50
1614;DHT22;800;48.824;9.346;2022-10-14T17:54:27;21.10;69.50
1614;DHT22;800;48.824;9.346;2022-10-14T17:56:54;21.10;69.70
1614;DHT22;800;48.824;9.346;2022-10-14T17:59:19;21.10;69.70
1614;DHT22;800;48.824;9.346;2022-10-14T18:01:45;21.10;69.40
1614;DHT22;800;48.824;9.346;2022-10-14T18:04:12;21.00;69.80
1614;DHT22;800;48.824;9.346;2022-10-14T18:06:37;20.90;70.10
1614;DHT22;800;48.824;9.346;2022-10-14T18:09:05;21.00;69.80
1614;DHT22;800;48.824;9.346;2022-10-14T18:11:34;20.80;70.60
1614;DHT22;800;48.824;9.346;2022-10-14T18:14:03;20.60;71.20
1614;DHT22;800;48.824;9.346;2022-10-14T18:16:32;20.50;72.10
1614;DHT22;800;48.824;9.346;2022-10-14T18:19:10;20.50;72.60
1614;DHT22;800;48.824;9.346;2022-10-14T18:21:37;20.50;72.60
1614;DHT22;800;48.824;9.346;2022-10-14T18:24:04;20.40;72.60
1614;DHT22;800;48.824;9.346;2022-10-14T18:26:30;20.50;72.30
1614;DHT22;800;48.824;9.346;2022-10-14T18:28:56;20.50;72.30
1614;DHT22;800;48.824;9.346;2022-10-14T18:31:26;20.50;72.70
1614;DHT22;800;48.824;9.346;2022-10-14T18:33:54;20.60;72.40
1614;DHT22;800;48.824;9.346;2022-10-14T18:36:22;20.60;72.00
1614;DHT22;800;48.824;9.346;2022-10-14T18:38:55;20.60;72.40
1614;DHT22;800;48.824;9.346;2022-10-14T18:41:21;20.50;73.10
1614;DHT22;800;48.824;9.346;2022-10-14T18:43:48;20.40;74.00
1614;DHT22;800;48.824;9.346;2022-10-14T18:46:20;20.20;74.80
1614;DHT22;800;48.824;9.346;2022-10-14T18:48:51;19.80;76.70
1614;DHT22;800;48.824;9.346;2022-10-14T18:51:19;19.60;78.20
1614;DHT22;800;48.824;9.346;2022-10-14T18:53:46;19.60;77.40
1614;DHT22;800;48.824;9.346;2022-10-14T18:56:17;19.70;76.40
1614;DHT22;800;48.824;9.346;2022-10-14T18:58:45;19.80;74.40
1614;DHT22;800;48.824;9.346;2022-10-14T19:01:13;19.90;73.40